Orizona, Brazil
Current Conditions -  °F | °C
As of 10:00 PM on Monday 22 Dec 2014 (Local Time) from SBAN Reporting Station
Light Rain Light Rain  
Wind Chill: 66°   Ceiling: 2500
Heat Index: 66°   Visibility: 6mi
Dew Point: 64°   Wind: 5mph
Humidity: 94%   Direction: 10°N
Pressure: NA   Gusts: NA
Location:  17.03°S, 48.3°W
Report Text: SBAN 230000Z 01004KT 9999 -RA BKN025 FEW035TCU BKN090 19/18 Q1019
Loading
Personal Weather Stations






























Interactive Weather Map New forecast layout! Learn more

10-Day Weather Forecast

Advertisements
Track Severe Weather on mobile